Time;durP1;ratioP1;P1;durP2;ratioP2;P2;SDS_P1;SDS_P2;PMS_P1;PMS_P2;Temp;Humidity;BMP_temperature;BMP_pressure;BME280_temperature;BME280_humidity;BME280_pressure;Samples;Min_cycle;Max_cycle;Signal;HPM_P1;HPM_P2
2023/04/07 00:10:12;;;;;;;13.77;6.97;;;;;;;9.16;100.00;100300.56;31336597;28;20048;-75
2023/04/07 00:25:14;;;;;;;15.10;7.13;;;;;;;8.93;100.00;100298.47;31361658;28;20249;-76
2023/04/07 00:40:17;;;;;;;15.50;7.93;;;;;;;8.74;100.00;100305.19;31384582;28;20654;-74
2023/04/07 00:55:18;;;;;;;24.70;8.30;;;;;;;8.74;100.00;100301.75;31386264;28;20041;-74
2023/04/07 01:10:27;;;;;;;11.90;6.73;;;;;;;8.72;100.00;100301.38;31375239;28;20493;-75
2023/04/07 01:26:13;;;;;;;18.00;8.10;;;;;;;8.67;100.00;100299.09;31383099;28;20057;-76
2023/04/07 01:41:16;;;;;;;16.47;8.77;;;;;;;8.58;100.00;100298.78;31375269;28;20118;-75
2023/04/07 01:56:18;;;;;;;16.53;8.63;;;;;;;8.47;100.00;100294.22;31366638;28;20524;-74
2023/04/07 02:11:21;;;;;;;17.53;8.40;;;;;;;8.38;100.00;100283.09;31387268;28;20099;-73
2023/04/07 02:26:23;;;;;;;14.33;6.90;;;;;;;8.35;100.00;100281.19;31366475;28;20053;-75
2023/04/07 02:41:26;;;;;;;11.63;4.90;;;;;;;8.48;100.00;100279.53;31364797;28;20516;-75
2023/04/07 02:56:28;;;;;;;14.70;5.87;;;;;;;8.58;100.00;100288.72;31377768;28;20048;-75
2023/04/07 03:11:30;;;;;;;9.37;5.23;;;;;;;8.66;100.00;100289.44;31378851;28;20060;-76
2023/04/07 03:26:31;;;;;;;9.73;5.10;;;;;;;8.82;100.00;100305.91;31359197;28;20053;-75
2023/04/07 03:41:34;;;;;;;11.63;5.70;;;;;;;8.74;100.00;100302.47;31355608;28;20060;-76
2023/04/07 03:56:36;;;;;;;10.37;5.57;;;;;;;8.95;100.00;100315.06;31355150;28;20048;-75
2023/04/07 04:11:38;;;;;;;14.60;6.30;;;;;;;9.00;100.00;100319.25;31367586;28;20099;-77
2023/04/07 04:26:40;;;;;;;20.57;7.53;;;;;;;9.27;100.00;100338.34;31354928;28;20139;-75
2023/04/07 04:41:42;;;;;;;16.57;7.13;;;;;;;9.51;100.00;100331.88;31356777;28;20064;-76
2023/04/07 04:56:44;;;;;;;13.20;7.20;;;;;;;9.72;100.00;100334.31;31353772;28;20398;-74
2023/04/07 05:11:46;;;;;;;15.03;7.13;;;;;;;10.05;100.00;100332.75;31362891;28;20053;-76
2023/04/07 05:26:48;;;;;;;14.17;7.60;;;;;;;10.19;100.00;100348.06;31360933;28;20043;-74
2023/04/07 05:41:51;;;;;;;19.17;6.83;;;;;;;10.26;100.00;100342.56;31376877;28;20061;-76
2023/04/07 05:56:53;;;;;;;11.63;7.10;;;;;;;10.22;100.00;100341.84;31378092;28;21031;-77
2023/04/07 06:11:55;;;;;;;13.50;6.53;;;;;;;10.08;100.00;100350.16;31371938;28;20090;-77
2023/04/07 06:26:57;;;;;;;12.47;5.77;;;;;;;10.41;100.00;100351.25;31385336;28;20055;-76
2023/04/07 06:42:00;;;;;;;8.07;4.57;;;;;;;10.55;100.00;100364.63;31359632;28;20052;-78
2023/04/07 06:57:02;;;;;;;6.57;4.00;;;;;;;10.51;100.00;100386.38;31373554;28;20059;-75
2023/04/07 07:12:05;;;;;;;9.00;4.80;;;;;;;10.50;100.00;100368.56;31367637;28;20048;-77
2023/04/07 07:27:07;;;;;;;12.13;4.33;;;;;;;10.52;100.00;100387.91;31338452;28;22022;-76
2023/04/07 07:42:09;;;;;;;9.13;4.80;;;;;;;10.89;100.00;100380.72;31327387;28;20061;-77
2023/04/07 07:57:11;;;;;;;10.30;4.47;;;;;;;10.83;100.00;100374.25;31341452;28;20396;-86
2023/04/07 08:12:13;;;;;;;12.33;3.73;;;;;;;10.41;100.00;100379.16;31382951;28;20057;-88
2023/04/07 08:27:15;;;;;;;8.23;4.20;;;;;;;10.82;100.00;100372.72;31351901;28;20056;-76
2023/04/07 08:42:20;;;;;;;9.87;4.87;;;;;;;10.52;100.00;100371.63;31350129;28;20053;-77
2023/04/07 08:57:23;;;;;;;9.50;4.33;;;;;;;10.64;100.00;100378.41;31391828;28;20168;-76
2023/04/07 09:12:26;;;;;;;10.13;4.33;;;;;;;10.68;100.00;100389.22;31428821;28;20084;-77
2023/04/07 09:27:28;;;;;;;9.60;4.93;;;;;;;10.83;100.00;100382.41;31371239;28;20107;-78
2023/04/07 09:42:34;;;;;;;12.83;6.33;;;;;;;11.02;100.00;100381.69;31377017;28;20080;-77
2023/04/07 09:57:38;;;;;;;12.67;5.40;;;;;;;10.97;100.00;100390.31;31350929;28;20049;-81
2023/04/07 10:12:41;;;;;;;9.83;4.87;;;;;;;10.89;100.00;100380.72;31377067;28;20057;-77
2023/04/07 10:27:49;;;;;;;11.97;5.00;;;;;;;10.88;100.00;100376.47;31357657;28;20057;-79
2023/04/07 10:42:51;;;;;;;12.50;5.23;;;;;;;11.31;100.00;100381.19;31370157;28;20052;-78
2023/04/07 10:58:24;;;;;;;12.47;5.67;;;;;;;11.59;100.00;100386.84;31379458;28;20044;-79
2023/04/07 11:13:27;;;;;;;14.70;7.10;;;;;;;11.90;100.00;100379.28;31369930;28;20048;-80
2023/04/07 11:28:30;;;;;;;15.97;6.70;;;;;;;12.11;100.00;100358.25;31385610;28;20101;-81
2023/04/07 11:43:32;;;;;;;15.07;6.87;;;;;;;12.36;100.00;100350.28;31391691;28;20060;-86
2023/04/07 11:58:37;;;;;;;17.30;7.43;;;;;;;12.08;100.00;100345.47;31355665;28;20480;-86
2023/04/07 12:13:40;;;;;;;17.83;7.90;;;;;;;12.12;100.00;100335.28;31368904;28;20048;-85
2023/04/07 12:28:42;;;;;;;13.70;6.93;;;;;;;12.52;100.00;100325.00;31408564;28;20117;-86
2023/04/07 12:43:44;;;;;;;17.87;9.13;;;;;;;13.07;100.00;100315.84;31403581;28;20147;-83
2023/04/07 12:58:48;;;;;;;15.33;7.60;;;;;;;13.31;100.00;100308.97;31416771;28;20048;-83
2023/04/07 13:13:51;;;;;;;19.70;8.50;;;;;;;13.29;100.00;100305.91;31411078;28;20068;-88
2023/04/07 13:28:58;;;;;;;16.30;8.90;;;;;;;13.61;100.00;100309.72;31381595;28;20041;-83
2023/04/07 13:44:00;;;;;;;19.77;9.33;;;;;;;13.68;100.00;100319.66;31342704;28;20103;-83
2023/04/07 13:59:06;;;;;;;25.43;11.10;;;;;;;13.53;100.00;100319.28;31360201;28;20067;-86
2023/04/07 14:14:08;;;;;;;29.03;13.20;;;;;;;13.37;100.00;100311.19;31374871;28;20052;-87
2023/04/07 14:29:11;;;;;;;19.53;9.67;;;;;;;13.43;100.00;100312.19;31390048;28;20120;-81
2023/04/07 14:44:14;;;;;;;18.63;9.73;;;;;;;13.38;100.00;100318.16;31361692;28;20048;-83
2023/04/07 14:59:16;;;;;;;17.20;9.20;;;;;;;13.27;100.00;100313.00;31355705;28;20044;-82
2023/04/07 15:14:18;;;;;;;18.03;9.00;;;;;;;13.28;100.00;100320.75;31379340;28;20053;-84
2023/04/07 15:29:20;;;;;;;27.17;13.33;;;;;;;13.26;100.00;100316.91;31395526;28;20045;-83
2023/04/07 15:44:22;;;;;;;35.37;16.10;;;;;;;13.13;100.00;100319.59;31401544;28;20063;-80
2023/04/07 15:59:39;;;;;;;27.73;14.83;;;;;;;13.17;100.00;100322.25;31376999;28;20052;-85
2023/04/07 16:14:40;;;;;;;19.30;10.63;;;;;;;13.05;100.00;100329.13;31367557;28;20504;-81
2023/04/07 16:29:43;;;;;;;39.97;16.93;;;;;;;13.23;100.00;100334.91;31397539;28;20103;-83
2023/04/07 16:44:45;;;;;;;20.57;11.23;;;;;;;13.25;100.00;100348.88;31382599;28;20053;-83
2023/04/07 16:59:48;;;;;;;33.87;15.87;;;;;;;12.74;100.00;100394.16;31391584;28;20044;-78
2023/04/07 17:14:49;;;;;;;20.97;12.10;;;;;;;12.82;100.00;100390.03;31425323;28;20048;-83
2023/04/07 17:29:51;;;;;;;16.07;8.87;;;;;;;12.74;100.00;100390.66;31440509;28;20056;-84
2023/04/07 17:44:53;;;;;;;10.57;5.37;;;;;;;12.56;100.00;100391.81;31443828;28;20119;-84
2023/04/07 17:59:55;;;;;;;18.07;7.57;;;;;;;12.48;100.00;100395.91;31426428;28;20037;-83
2023/04/07 18:14:57;;;;;;;33.10;13.70;;;;;;;12.20;100.00;100399.25;31425900;28;20056;-80
2023/04/07 18:29:59;;;;;;;25.67;10.27;;;;;;;12.08;100.00;100413.50;31418377;28;20516;-77
2023/04/07 18:45:01;;;;;;;47.30;20.97;;;;;;;12.19;100.00;100395.00;31388980;28;20061;-80
2023/04/07 19:00:04;;;;;;;20.17;9.70;;;;;;;12.02;100.00;100396.94;31395213;28;20067;-75
2023/04/07 19:15:06;;;;;;;16.00;7.73;;;;;;;12.00;100.00;100388.41;31404505;28;20051;-83
2023/04/07 19:30:09;;;;;;;19.50;9.13;;;;;;;12.07;100.00;100412.72;31396209;28;21658;-79
2023/04/07 19:45:11;;;;;;;20.23;8.57;;;;;;;12.07;100.00;100414.69;31382485;28;20060;-78
2023/04/07 20:00:13;;;;;;;20.40;9.40;;;;;;;12.10;100.00;100419.28;31397777;28;20040;-79
2023/04/07 20:15:16;;;;;;;18.67;8.23;;;;;;;12.16;100.00;100423.06;31402052;28;20060;-81
2023/04/07 20:30:17;;;;;;;22.30;7.40;;;;;;;12.16;100.00;100401.28;31419800;28;20071;-80
2023/04/07 20:45:20;;;;;;;20.63;9.30;;;;;;;12.16;100.00;100385.72;31393198;28;20048;-79
2023/04/07 21:00:22;;;;;;;30.60;12.63;;;;;;;11.91;100.00;100378.09;31394319;28;20049;-78
2023/04/07 21:15:24;;;;;;;25.73;12.27;;;;;;;11.88;100.00;100380.88;31426129;28;20049;-78
2023/04/07 21:30:26;;;;;;;22.23;11.40;;;;;;;11.95;100.00;100386.19;31398689;28;20073;-79
2023/04/07 21:45:28;;;;;;;18.73;9.83;;;;;;;12.01;100.00;100394.63;31368847;28;20087;-79
2023/04/07 22:00:30;;;;;;;23.27;11.13;;;;;;;11.97;100.00;100388.47;31367956;28;20045;-78
2023/04/07 22:15:32;;;;;;;21.97;9.97;;;;;;;11.91;100.00;100397.13;31295526;28;20459;-77
2023/04/07 22:30:34;;;;;;;20.87;10.57;;;;;;;11.72;100.00;100395.16;31329188;28;20057;-78
2023/04/07 22:45:36;;;;;;;17.27;9.10;;;;;;;11.82;100.00;100398.88;31293184;28;20053;-78
2023/04/07 23:00:38;;;;;;;29.30;12.20;;;;;;;11.57;100.00;100383.03;31285466;28;20045;-78
2023/04/07 23:15:40;;;;;;;25.97;12.43;;;;;;;11.50;100.00;100380.44;31322955;28;20057;-78
2023/04/07 23:30:42;;;;;;;21.90;10.83;;;;;;;11.40;100.00;100379.44;31259283;28;20134;-79
2023/04/07 23:45:45;;;;;;;23.67;10.83;;;;;;;11.38;100.00;100375.59;31275980;28;20057;-78
